Aviation Digital Data Service (ADDS)

Output produced by METARs form (1253 UTC 23 June 2021)
found at http://www.aviationweather.gov/metar/data/
 
Forecast for: KFAT (FRESNO , CA, US)
Text: KFAT 231120Z 2312/2412 30009KT P6SM SKC
Forecast period: 1200 UTC 23 June 2021 to 1200 UTC 24 June 2021
Forecast type: FROM: standard forecast or significant change
Winds: from the WNW (300 degrees) at 10 MPH (9 knots; 4.6 m/s)
Visibility: 6 or more miles (10+ km)
Clouds: clear skies
Weather: no significant weather forecast for this period